Time,TemperatureF,DewpointF,PressureIn,WindDirection,WindDirectionDegrees,WindSpeedMPH,WindSpeedGustMPH,Humidity,HourlyPrecipIn,Conditions,Clouds,dailyrainin,SoftwareType,DateUTC
2013-10-11 00:14:00,53.4,52.8,29.81,West,270,0.0,-999.0,98,-99.99,,,0.00,Acu-Link.com,2013-10-11 04:14:00,
2013-10-11 00:30:00,53.6,53.0,29.81,SSW,202,0.0,-999.0,98,-99.99,,,0.00,Acu-Link.com,2013-10-11 04:30:00,
2013-10-11 00:45:00,53.4,52.8,29.81,South,180,0.0,-999.0,98,-99.99,,,0.00,Acu-Link.com,2013-10-11 04:45:00,
2013-10-11 01:00:00,53.8,53.2,29.81,ESE,112,0.0,-999.0,98,-99.99,,,0.00,Acu-Link.com,2013-10-11 05:00:00,
2013-10-11 01:15:00,54.0,53.4,29.81,East,90,0.0,-999.0,98,-99.99,,,0.00,Acu-Link.com,2013-10-11 05:15:00,
2013-10-11 01:31:00,54.1,53.5,29.81,ESE,112,2.7,-999.0,98,-99.99,,,0.00,Acu-Link.com,2013-10-11 05:31:00,
2013-10-11 01:46:00,53.8,53.2,29.82,SSW,202,2.2,-999.0,98,-99.99,,,0.00,Acu-Link.com,2013-10-11 05:46:00,
2013-10-11 02:01:00,54.5,53.9,29.82,SE,135,1.7,-999.0,98,-99.99,,,0.00,Acu-Link.com,2013-10-11 06:01:00,
2013-10-11 02:16:00,53.1,52.5,29.82,South,180,1.1,-999.0,98,-99.99,,,0.00,Acu-Link.com,2013-10-11 06:16:00,
2013-10-11 02:31:00,52.9,52.4,29.82,WNW,292,0.0,-999.0,98,-99.99,,,0.00,Acu-Link.com,2013-10-11 06:31:00,
2013-10-11 02:47:00,54.1,53.5,29.82,SW,225,2.2,-999.0,98,-99.99,,,0.00,Acu-Link.com,2013-10-11 06:47:00,
2013-10-11 03:05:00,55.4,54.8,29.82,South,180,3.2,-999.0,98,-99.99,,,0.00,Acu-Link.com,2013-10-11 07:05:00,
2013-10-11 03:20:00,55.2,54.6,29.82,ESE,112,2.2,-999.0,98,-99.99,,,0.00,Acu-Link.com,2013-10-11 07:20:00,
2013-10-11 03:37:00,55.0,54.4,29.82,SSE,157,2.2,-999.0,98,-99.99,,,0.00,Acu-Link.com,2013-10-11 07:37:00,
2013-10-11 03:52:00,54.7,54.1,29.82,ENE,67,2.7,-999.0,98,-99.99,,,0.00,Acu-Link.com,2013-10-11 07:52:00,
2013-10-11 04:08:00,54.5,53.9,29.81,ENE,67,1.7,-999.0,98,-99.99,,,0.00,Acu-Link.com,2013-10-11 08:08:00,
2013-10-11 04:23:00,53.8,53.2,29.81,South,180,2.7,-999.0,98,-99.99,,,0.00,Acu-Link.com,2013-10-11 08:23:00,
2013-10-11 04:39:00,54.7,54.1,29.81,SSE,157,2.7,-999.0,98,-99.99,,,0.00,Acu-Link.com,2013-10-11 08:39:00,
2013-10-11 04:54:00,54.0,53.4,29.80,East,90,2.2,-999.0,98,-99.99,,,0.00,Acu-Link.com,2013-10-11 08:54:00,
2013-10-11 05:09:00,53.4,52.8,29.81,WSW,247,0.0,-999.0,98,-99.99,,,0.00,Acu-Link.com,2013-10-11 09:09:00,
2013-10-11 05:24:00,53.8,53.2,29.82,NW,315,0.0,-999.0,98,-99.99,,,0.00,Acu-Link.com,2013-10-11 09:24:00,
2013-10-11 05:40:00,53.4,52.8,29.81,WSW,247,0.0,-999.0,98,-99.99,,,0.00,Acu-Link.com,2013-10-11 09:40:00,
2013-10-11 05:55:00,52.7,52.2,29.82,WSW,247,1.1,-999.0,98,-99.99,,,0.00,Acu-Link.com,2013-10-11 09:55:00,
2013-10-11 06:10:00,53.1,52.5,29.81,South,180,2.7,-999.0,98,-99.99,,,0.00,Acu-Link.com,2013-10-11 10:10:00,
2013-10-11 06:25:00,51.4,50.9,29.82,NE,45,0.0,-999.0,98,-99.99,,,0.00,Acu-Link.com,2013-10-11 10:25:00,
2013-10-11 06:40:00,50.0,49.5,29.82,SSE,157,0.0,-999.0,98,-99.99,,,0.00,Acu-Link.com,2013-10-11 10:40:00,
2013-10-11 06:56:00,49.3,48.8,29.82,SE,135,2.2,-999.0,98,-99.99,,,0.00,Acu-Link.com,2013-10-11 10:56:00,
2013-10-11 07:11:00,49.5,49.0,29.83,ESE,112,1.1,-999.0,98,-99.99,,,0.00,Acu-Link.com,2013-10-11 11:11:00,
2013-10-11 07:26:00,49.5,49.0,29.83,SSE,157,0.0,-999.0,98,-99.99,,,0.00,Acu-Link.com,2013-10-11 11:26:00,
2013-10-11 07:42:00,49.8,49.3,29.83,SSE,157,1.7,-999.0,98,-99.99,,,0.00,Acu-Link.com,2013-10-11 11:42:00,
2013-10-11 07:57:00,50.0,49.5,29.83,South,180,2.7,-999.0,98,-99.99,,,0.00,Acu-Link.com,2013-10-11 11:57:00,
2013-10-11 08:12:00,50.7,50.2,29.82,WNW,292,0.0,-999.0,98,-99.99,,,0.00,Acu-Link.com,2013-10-11 12:12:00,
2013-10-11 08:27:00,52.0,51.5,29.83,North,0,1.1,-999.0,98,-99.99,,,0.00,Acu-Link.com,2013-10-11 12:27:00,
2013-10-11 08:42:00,54.3,53.7,29.84,ENE,67,1.1,-999.0,98,-99.99,,,0.00,Acu-Link.com,2013-10-11 12:42:00,
2013-10-11 08:58:00,57.6,57.0,29.84,SW,225,1.1,-999.0,98,-99.99,,,0.00,Acu-Link.com,2013-10-11 12:58:00,
2013-10-11 09:13:00,58.6,58.0,29.84,West,270,2.2,-999.0,98,-99.99,,,0.00,Acu-Link.com,2013-10-11 13:13:00,
2013-10-11 09:28:00,61.2,60.6,29.85,East,90,3.2,-999.0,98,-99.99,,,0.00,Acu-Link.com,2013-10-11 13:28:00,
2013-10-11 09:43:00,63.5,62.9,29.85,WSW,247,2.2,-999.0,98,-99.99,,,0.00,Acu-Link.com,2013-10-11 13:43:00,
2013-10-11 09:58:00,64.2,63.6,29.85,ESE,112,3.2,-999.0,98,-99.99,,,0.00,Acu-Link.com,2013-10-11 13:58:00,
2013-10-11 10:14:00,66.0,65.4,29.84,East,90,5.3,-999.0,98,-99.99,,,0.00,Acu-Link.com,2013-10-11 14:14:00,
2013-10-11 10:29:00,67.3,66.7,29.84,South,180,2.7,-999.0,98,-99.99,,,0.00,Acu-Link.com,2013-10-11 14:29:00,
2013-10-11 10:44:00,68.0,67.4,29.84,SE,135,5.3,-999.0,98,-99.99,,,0.00,Acu-Link.com,2013-10-11 14:44:00,
2013-10-11 10:59:00,69.6,69.0,29.84,SE,135,2.2,-999.0,98,-99.99,,,0.00,Acu-Link.com,2013-10-11 14:59:00,
2013-10-11 11:14:00,70.2,69.6,29.84,South,180,2.7,-999.0,98,-99.99,,,0.00,Acu-Link.com,2013-10-11 15:14:00,
2013-10-11 11:30:00,70.9,70.3,29.84,East,90,4.2,-999.0,98,-99.99,,,0.00,Acu-Link.com,2013-10-11 15:30:00,
2013-10-11 11:45:00,71.4,70.2,29.83,North,0,2.7,-999.0,96,-99.99,,,0.00,Acu-Link.com,2013-10-11 15:45:00,
2013-10-11 12:00:00,73.2,72.0,29.83,South,180,1.7,-999.0,96,-99.99,,,0.00,Acu-Link.com,2013-10-11 16:00:00,
2013-10-11 12:15:00,74.1,72.3,29.83,ESE,112,3.2,-999.0,94,-99.99,,,0.00,Acu-Link.com,2013-10-11 16:15:00,
2013-10-11 12:30:00,74.7,73.2,29.84,ESE,112,2.2,-999.0,95,-99.99,,,0.00,Acu-Link.com,2013-10-11 16:30:00,
2013-10-11 12:46:00,74.3,71.2,29.83,SE,135,3.7,-999.0,90,-99.99,,,0.00,Acu-Link.com,2013-10-11 16:46:00,
2013-10-11 13:01:00,75.0,72.5,29.83,North,0,3.7,-999.0,92,-99.99,,,0.00,Acu-Link.com,2013-10-11 17:01:00,
2013-10-11 13:16:00,74.1,71.3,29.82,SSE,157,3.2,-999.0,91,-99.99,,,0.00,Acu-Link.com,2013-10-11 17:16:00,
2013-10-11 13:31:00,75.0,70.9,29.81,SSW,202,3.7,-999.0,87,-99.99,,,0.00,Acu-Link.com,2013-10-11 17:31:00,
2013-10-11 13:47:00,74.8,71.0,29.80,ENE,67,2.7,-999.0,88,-99.99,,,0.00,Acu-Link.com,2013-10-11 17:47:00,
2013-10-11 14:02:00,74.8,70.3,29.80,ESE,112,4.7,-999.0,86,-99.99,,,0.00,Acu-Link.com,2013-10-11 18:02:00,
2013-10-11 14:17:00,75.6,70.8,29.79,SE,135,7.3,-999.0,85,-99.99,,,0.00,Acu-Link.com,2013-10-11 18:17:00,
2013-10-11 14:32:00,76.3,72.1,29.77,ENE,67,3.2,-999.0,87,-99.99,,,0.00,Acu-Link.com,2013-10-11 18:32:00,
2013-10-11 14:47:00,75.7,70.9,29.78,WSW,247,3.7,-999.0,85,-99.99,,,0.00,Acu-Link.com,2013-10-11 18:47:00,
2013-10-11 15:04:00,77.0,72.5,29.77,West,270,3.2,-999.0,86,-99.99,,,0.00,Acu-Link.com,2013-10-11 19:04:00,
2013-10-11 15:19:00,76.5,71.3,29.77,South,180,3.2,-999.0,84,-99.99,,,0.00,Acu-Link.com,2013-10-11 19:19:00,
2013-10-11 15:36:00,75.4,69.9,29.76,WNW,292,2.2,-999.0,83,-99.99,,,0.00,Acu-Link.com,2013-10-11 19:36:00,
2013-10-11 15:52:00,75.6,70.4,29.77,South,180,2.7,-999.0,84,-99.99,,,0.00,Acu-Link.com,2013-10-11 19:52:00,
2013-10-11 16:07:00,75.4,70.2,29.76,SSE,157,1.7,-999.0,84,-99.99,,,0.00,Acu-Link.com,2013-10-11 20:07:00,
2013-10-11 16:22:00,73.9,69.8,29.76,SSE,157,2.7,-999.0,87,-99.99,,,0.00,Acu-Link.com,2013-10-11 20:22:00,
2013-10-11 16:37:00,73.2,69.4,29.76,SW,225,1.1,-999.0,88,-99.99,,,0.00,Acu-Link.com,2013-10-11 20:37:00,
2013-10-11 16:53:00,73.8,69.3,29.76,SW,225,6.8,-999.0,86,-99.99,,,0.00,Acu-Link.com,2013-10-11 20:53:00,
2013-10-11 17:08:00,73.0,69.6,29.77,ESE,112,2.7,-999.0,89,-99.99,,,0.00,Acu-Link.com,2013-10-11 21:08:00,
2013-10-11 17:23:00,71.8,68.7,29.76,ESE,112,2.2,-999.0,90,-99.99,,,0.00,Acu-Link.com,2013-10-11 21:23:00,
2013-10-11 17:38:00,70.5,68.1,29.76,SSW,202,1.1,-999.0,92,-99.99,,,0.00,Acu-Link.com,2013-10-11 21:38:00,
2013-10-11 17:54:00,69.4,67.6,29.77,West,270,1.7,-999.0,94,-99.99,,,0.00,Acu-Link.com,2013-10-11 21:54:00,
2013-10-11 18:09:00,68.4,67.5,29.77,WNW,292,1.7,-999.0,97,-99.99,,,0.00,Acu-Link.com,2013-10-11 22:09:00,
2013-10-11 18:24:00,67.8,67.2,29.77,SSW,202,0.0,-999.0,98,-99.99,,,0.00,Acu-Link.com,2013-10-11 22:24:00,
2013-10-11 18:39:00,66.7,66.1,29.77,South,180,0.0,-999.0,98,-99.99,,,0.00,Acu-Link.com,2013-10-11 22:39:00,
2013-10-11 18:54:00,66.0,65.4,29.77,West,270,1.1,-999.0,98,-99.99,,,0.00,Acu-Link.com,2013-10-11 22:54:00,
2013-10-11 19:10:00,65.1,64.5,29.78,WSW,247,1.1,-999.0,98,-99.99,,,0.00,Acu-Link.com,2013-10-11 23:10:00,
2013-10-11 19:25:00,65.1,64.5,29.78,ENE,67,1.7,-999.0,98,-99.99,,,0.00,Acu-Link.com,2013-10-11 23:25:00,
2013-10-11 19:40:00,64.8,64.2,29.78,ESE,112,2.7,-999.0,98,-99.99,,,0.00,Acu-Link.com,2013-10-11 23:40:00,
2013-10-11 19:55:00,64.2,63.6,29.78,West,270,1.1,-999.0,98,-99.99,,,0.00,Acu-Link.com,2013-10-11 23:55:00,
2013-10-11 20:10:00,64.4,63.8,29.79,ENE,67,2.2,-999.0,98,-99.99,,,0.00,Acu-Link.com,2013-10-12 00:10:00,
2013-10-11 20:26:00,63.3,62.7,29.79,NW,315,0.0,-999.0,98,-99.99,,,0.00,Acu-Link.com,2013-10-12 00:26:00,
2013-10-11 20:41:00,62.4,61.8,29.79,East,90,0.0,-999.0,98,-99.99,,,0.00,Acu-Link.com,2013-10-12 00:41:00,
2013-10-11 20:56:00,61.0,60.4,29.80,NNE,22,0.0,-999.0,98,-99.99,,,0.00,Acu-Link.com,2013-10-12 00:56:00,
2013-10-11 21:11:00,59.9,59.3,29.80,South,180,0.0,-999.0,98,-99.99,,,0.00,Acu-Link.com,2013-10-12 01:11:00,
2013-10-11 21:26:00,59.9,59.3,29.79,SSW,202,0.0,-999.0,98,-99.99,,,0.00,Acu-Link.com,2013-10-12 01:26:00,
2013-10-11 21:42:00,58.6,58.0,29.80,South,180,0.0,-999.0,98,-99.99,,,0.00,Acu-Link.com,2013-10-12 01:42:00,
2013-10-11 21:57:00,57.7,57.1,29.80,SW,225,2.2,-999.0,98,-99.99,,,0.00,Acu-Link.com,2013-10-12 01:57:00,
2013-10-11 22:12:00,57.6,57.0,29.80,WNW,292,0.0,-999.0,98,-99.99,,,0.00,Acu-Link.com,2013-10-12 02:12:00,
2013-10-11 22:27:00,57.4,56.8,29.79,SE,135,1.7,-999.0,98,-99.99,,,0.00,Acu-Link.com,2013-10-12 02:27:00,
2013-10-11 22:43:00,57.0,56.4,29.80,SE,135,2.7,-999.0,98,-99.99,,,0.00,Acu-Link.com,2013-10-12 02:43:00,
2013-10-11 22:58:00,56.7,56.1,29.80,NE,45,0.0,-999.0,98,-99.99,,,0.00,Acu-Link.com,2013-10-12 02:58:00,
2013-10-11 23:13:00,55.9,55.3,29.80,SSE,157,0.0,-999.0,98,-99.99,,,0.00,Acu-Link.com,2013-10-12 03:13:00,
2013-10-11 23:28:00,55.9,55.3,29.80,NW,315,1.7,-999.0,98,-99.99,,,0.00,Acu-Link.com,2013-10-12 03:28:00,
2013-10-11 23:43:00,55.8,55.2,29.80,SSE,157,0.0,-999.0,98,-99.99,,,0.00,Acu-Link.com,2013-10-12 03:43:00,
2013-10-11 23:59:00,55.8,55.2,29.80,East,90,2.2,-999.0,98,-99.99,,,0.00,Acu-Link.com,2013-10-12 03:59:00,